Time;durP1;ratioP1;P1;durP2;ratioP2;P2;SDS_P1;SDS_P2;PMS_P1;PMS_P2;Temp;Humidity;BMP_temperature;BMP_pressure;BME280_temperature;BME280_humidity;BME280_pressure;Samples;Min_cycle;Max_cycle;Signal;HPM_P1;HPM_P2
2021/12/07 00:01:06;;;;;;;;;;;;;;;-142.21;100.00;66915.31;5055056;28;1431;-90
2021/12/07 00:03:32;;;;;;;;;;;;;;;-142.21;100.00;66915.31;5055237;28;1168;-89
2021/12/07 00:05:57;;;;;;;;;;;;;;;-142.21;100.00;66915.31;5055104;28;1384;-90
2021/12/07 00:08:25;;;;;;;;;;;;;;;-142.21;100.00;66915.31;5054010;28;1572;-88
2021/12/07 00:10:51;;;;;;;;;;;;;;;-142.21;100.00;66915.31;5054945;28;1963;-89
2021/12/07 00:13:16;;;;;;;;;;;;;;;-142.21;100.00;66915.31;5056268;28;871;-90
2021/12/07 00:15:41;;;;;;;;;;;;;;;-142.21;100.00;66915.31;5054858;28;1332;-90
2021/12/07 00:18:07;;;;;;;;;;;;;;;-142.21;100.00;66915.31;5054942;28;1199;-89
2021/12/07 00:20:32;;;;;;;;;;;;;;;-142.21;100.00;66915.31;5054920;28;1059;-90
2021/12/07 00:22:59;;;;;;;;;;;;;;;-142.21;100.00;66915.31;5054720;28;1631;-89
2021/12/07 00:25:24;;;;;;;;;;;;;;;-142.21;100.00;66915.31;5054521;28;1323;-90
2021/12/07 00:27:50;;;;;;;;;;;;;;;-142.21;100.00;66915.31;5054703;28;1307;-88
2021/12/07 00:30:15;;;;;;;;;;;;;;;-142.21;100.00;66915.31;5054512;28;1092;-89
2021/12/07 00:32:47;;;;;;;;;;;;;;;-142.21;100.00;66915.31;5054236;28;1906;-88
2021/12/07 00:37:57;;;;;;;;;;;;;;;-142.21;100.00;66915.31;5056135;28;628;-90
2021/12/07 00:40:22;;;;;;;;;;;;;;;-142.21;100.00;66915.31;5054421;28;1269;-91
2021/12/07 00:42:48;;;;;;;;;;;;;;;-142.21;100.00;66915.31;5054855;28;1171;-89
2021/12/07 00:45:16;;;;;;;;;;;;;;;-142.21;100.00;66915.31;5055593;28;1303;-89
2021/12/07 00:47:41;;;;;;;;;;;;;;;-142.21;100.00;66915.31;5054120;28;1191;-89
2021/12/07 00:50:07;;;;;;;;;;;;;;;-142.21;100.00;66915.31;5056325;28;825;-90
2021/12/07 00:52:32;;;;;;;;;;;;;;;-142.21;100.00;66915.31;5054265;28;1897;-90
2021/12/07 00:54:58;;;;;;;;;;;;;;;-142.21;100.00;66915.31;5055277;28;1614;-89
2021/12/07 00:57:25;;;;;;;;;;;;;;;-142.21;100.00;66915.31;5055345;28;971;-90
2021/12/07 00:59:50;;;;;;;;;;;;;;;-142.21;100.00;66915.31;5054055;28;1314;-90
2021/12/07 01:02:15;;;;;;;;;;;;;;;-142.21;100.00;66915.31;5053986;28;1435;-90
2021/12/07 01:04:50;;;;;;;;;;;;;;;-142.21;100.00;66915.31;5054196;28;1370;-90
2021/12/07 01:07:25;;;;;;;;;;;;;;;-142.21;100.00;66915.31;5054047;28;1352;-90
2021/12/07 01:24:40;;;;;;;;;;;;;;;-142.21;100.00;66915.31;5054304;28;1468;-88
2021/12/07 01:26:15;;;;;;;;;;;;;;;-142.21;100.00;66915.31;5055009;28;1239;-90
2021/12/07 01:28:44;;;;;;;;;;;;;;;-142.21;100.00;66915.31;5055015;28;1016;-88
2021/12/07 01:31:25;;;;;;;;;;;;;;;-142.21;100.00;66915.31;5055162;28;1914;-88
2021/12/07 01:39:48;;;;;;;;;;;;;;;-142.21;100.00;66915.31;5055257;28;646;-88
2021/12/07 01:51:07;;;;;;;;;;;;;;;-142.21;100.00;66915.31;5055125;28;1031;-88
2021/12/07 01:53:11;;;;;;;;;;;;;;;-142.21;100.00;66915.31;5050519;28;1162;-90
2021/12/07 02:00:47;;;;;;;;;;;;;;;-142.21;100.00;66915.31;5054457;28;983;-91
2021/12/07 02:03:12;;;;;;;;;;;;;;;-142.21;100.00;66915.31;5054120;28;1176;-91
2021/12/07 02:05:37;;;;;;;;;;;;;;;-142.21;100.00;66915.31;5054432;28;1275;-89
2021/12/07 02:08:03;;;;;;;;;;;;;;;-142.21;100.00;66915.31;5052971;28;1337;-92
2021/12/07 02:10:30;;;;;;;;;;;;;;;-142.21;100.00;66915.31;5054286;28;1957;-88
2021/12/07 02:13:02;;;;;;;;;;;;;;;-142.21;100.00;66915.31;5054346;28;820;-89
2021/12/07 02:15:29;;;;;;;;;;;;;;;-142.21;100.00;66915.31;5053308;28;1361;-89
2021/12/07 02:17:54;;;;;;;;;;;;;;;-142.21;100.00;66915.31;5053047;28;1338;-88
2021/12/07 02:20:20;;;;;;;;;;;;;;;-142.21;100.00;66915.31;5053053;28;1424;-89
2021/12/07 02:22:45;;;;;;;;;;;;;;;-142.21;100.00;66915.31;5053258;28;1194;-90
2021/12/07 02:25:13;;;;;;;;;;;;;;;-142.21;100.00;66915.31;5052558;28;1304;-90
2021/12/07 02:27:39;;;;;;;;;;;;;;;-142.21;100.00;66915.31;5052491;28;1266;-91
2021/12/07 02:30:05;;;;;;;;;;;;;;;-142.21;100.00;66915.31;5052444;28;1561;-88
2021/12/07 02:32:31;;;;;;;;;;;;;;;-142.21;100.00;66915.31;5052174;28;1955;-91
2021/12/07 02:35:00;;;;;;;;;;;;;;;-142.21;100.00;66915.31;5052334;28;1455;-89
2021/12/07 02:37:26;;;;;;;;;;;;;;;-142.21;100.00;66915.31;5052548;28;1336;-90
2021/12/07 02:39:51;;;;;;;;;;;;;;;-142.21;100.00;66915.31;5053804;28;883;-91
2021/12/07 02:42:17;;;;;;;;;;;;;;;-142.21;100.00;66915.31;5052476;28;1334;-90
2021/12/07 02:44:42;;;;;;;;;;;;;;;-142.21;100.00;66915.31;5052069;28;1416;-90
2021/12/07 02:47:07;;;;;;;;;;;;;;;-142.21;100.00;66915.31;5052250;28;1168;-91
2021/12/07 02:49:33;;;;;;;;;;;;;;;-142.21;100.00;66915.31;5053378;28;995;-89
2021/12/07 02:51:58;;;;;;;;;;;;;;;-142.21;100.00;66915.31;5052096;28;1956;-89
2021/12/07 02:54:23;;;;;;;;;;;;;;;-142.21;100.00;66915.31;5053806;28;1224;-88
2021/12/07 02:56:50;;;;;;;;;;;;;;;-142.21;100.00;66915.31;5052607;28;1250;-88
2021/12/07 02:59:17;;;;;;;;;;;;;;;-142.21;100.00;66915.31;5052974;28;1410;-88
2021/12/07 03:01:47;;;;;;;;;;;;;;;-142.21;100.00;66915.31;5052661;28;1566;-88
2021/12/07 03:04:18;;;;;;;;;;;;;;;-142.21;100.00;66915.31;5049394;28;1347;-89
2021/12/07 03:09:50;;;;;;;;;;;;;;;-142.21;100.00;66915.31;5053548;28;848;-89
2021/12/07 03:26:12;;;;;;;;;;;;;;;-142.21;100.00;66915.31;5055652;28;1280;-88
2021/12/07 03:28:39;;;;;;;;;;;;;;;-142.21;100.00;66915.31;5053434;28;1317;-87
2021/12/07 03:31:05;;;;;;;;;;;;;;;-142.21;100.00;66915.31;5054682;28;1894;-88
2021/12/07 03:33:30;;;;;;;;;;;;;;;-142.21;100.00;66915.31;5052713;28;1226;-88
2021/12/07 03:35:55;;;;;;;;;;;;;;;-142.21;100.00;66915.31;5053000;28;1308;-88
2021/12/07 03:38:21;;;;;;;;;;;;;;;-142.21;100.00;66915.31;5052780;28;1184;-87
2021/12/07 03:40:46;;;;;;;;;;;;;;;-142.21;100.00;66915.31;5052838;28;1278;-88
2021/12/07 03:43:13;;;;;;;;;;;;;;;-142.21;100.00;66915.31;5054138;28;1427;-88
2021/12/07 03:45:38;;;;;;;;;;;;;;;-142.21;100.00;66915.31;5056526;28;1244;-89
2021/12/07 03:48:04;;;;;;;;;;;;;;;-142.21;100.00;66915.31;5055792;28;1294;-88
2021/12/07 03:50:30;;;;;;;;;;;;;;;-142.21;100.00;66915.31;5056838;28;1509;-88
2021/12/07 03:52:55;;;;;;;;;;;;;;;-142.21;100.00;66915.31;5055410;28;1944;-89
2021/12/07 03:55:21;;;;;;;;;;;;;;;-142.21;100.00;66915.31;5055374;28;1187;-89
2021/12/07 03:57:46;;;;;;;;;;;;;;;-142.21;100.00;66915.31;5055220;28;1211;-89
2021/12/07 04:00:14;;;;;;;;;;;;;;;-142.21;100.00;66915.31;5056282;28;900;-89
2021/12/07 04:02:41;;;;;;;;;;;;;;;-142.21;100.00;66915.31;5056956;28;1335;-87
2021/12/07 04:05:11;;;;;;;;;;;;;;;-142.21;100.00;66915.31;5057655;28;1202;-88
2021/12/07 04:07:36;;;;;;;;;;;;;;;-142.21;100.00;66915.31;5057345;28;1324;-88
2021/12/07 04:10:01;;;;;;;;;;;;;;;-142.21;100.00;66915.31;5067558;28;1198;-88
2021/12/07 04:12:26;;;;;;;;;;;;;;;-142.21;100.00;66915.31;5043575;28;1953;-88
2021/12/07 04:14:52;;;;;;;;;;;;;;;-142.21;100.00;66915.31;5058091;28;1256;-89
2021/12/07 04:17:18;;;;;;;;;;;;;;;-142.21;100.00;66915.31;5054748;28;980;-88
2021/12/07 04:19:43;;;;;;;;;;;;;;;-142.21;100.00;66915.31;5054030;28;1463;-89
2021/12/07 04:22:09;;;;;;;;;;;;;;;-142.21;100.00;66915.31;5054342;28;1566;-88
2021/12/07 04:24:34;;;;;;;;;;;;;;;-142.21;100.00;66915.31;5054623;28;1459;-91
2021/12/07 04:26:59;;;;;;;;;;;;;;;-142.21;100.00;66915.31;5057493;28;1039;-89
2021/12/07 04:29:24;;;;;;;;;;;;;;;-142.21;100.00;66915.31;5054848;28;1418;-90
2021/12/07 04:31:49;;;;;;;;;;;;;;;-142.21;100.00;66915.31;5056071;28;1890;-89
2021/12/07 04:34:14;;;;;;;;;;;;;;;-142.21;100.00;66915.31;5054863;28;1260;-90
2021/12/07 04:36:40;;;;;;;;;;;;;;;-142.21;100.00;66915.31;5055115;28;1376;-90
2021/12/07 04:39:05;;;;;;;;;;;;;;;-142.21;100.00;66915.31;5056570;28;1011;-90
2021/12/07 04:41:33;;;;;;;;;;;;;;;-142.21;100.00;66915.31;5055776;28;1470;-89
2021/12/07 04:43:59;;;;;;;;;;;;;;;-142.21;100.00;66915.31;5054694;28;1215;-90
2021/12/07 04:46:34;;;;;;;;;;;;;;;-142.21;100.00;66915.31;5054767;28;1399;-91
2021/12/07 04:57:45;;;;;;;;;;;;;;;-142.21;100.00;66915.31;5033234;28;1306;-88
2021/12/07 05:00:13;;;;;;;;;;;;;;;-142.21;100.00;66915.31;5050196;28;1248;-88
2021/12/07 05:02:40;;;;;;;;;;;;;;;-142.21;100.00;66915.31;5055217;28;821;-89
2021/12/07 05:05:07;;;;;;;;;;;;;;;-142.21;100.00;66915.31;5053932;28;1278;-88
2021/12/07 05:07:37;;;;;;;;;;;;;;;-142.21;100.00;66915.31;5053982;28;1180;-87
2021/12/07 05:10:14;;;;;;;;;;;;;;;-142.21;100.00;66915.31;5053820;28;1396;-89
2021/12/07 05:12:58;;;;;;;;;;;;;;;-142.21;100.00;66915.31;5053555;28;1894;-88
2021/12/07 05:15:44;;;;;;;;;;;;;;;-142.21;100.00;66915.31;5054991;28;1235;-88
2021/12/07 05:39:42;;;;;;;;;;;;;;;-142.21;100.00;66915.31;5059330;28;1447;-86
2021/12/07 05:42:08;;;;;;;;;;;;;;;-142.21;100.00;66915.31;5054581;28;1474;-85
2021/12/07 05:44:33;;;;;;;;;;;;;;;-142.21;100.00;66915.31;5056297;28;1463;-89
2021/12/07 05:46:58;;;;;;;;;;;;;;;-142.21;100.00;66915.31;5055446;28;1495;-87
2021/12/07 05:49:23;;;;;;;;;;;;;;;-142.21;100.00;66915.31;5057736;28;1328;-87
2021/12/07 05:51:49;;;;;;;;;;;;;;;-142.21;100.00;66915.31;5056792;28;1906;-86
2021/12/07 05:54:14;;;;;;;;;;;;;;;-142.21;100.00;66915.31;5056364;28;1462;-86
2021/12/07 05:56:39;;;;;;;;;;;;;;;-142.21;100.00;66915.31;5056823;28;1225;-87
2021/12/07 05:59:04;;;;;;;;;;;;;;;-142.21;100.00;66915.31;5056916;28;1525;-85
2021/12/07 06:01:29;;;;;;;;;;;;;;;-142.21;100.00;66915.31;5057242;28;1471;-87
2021/12/07 06:03:55;;;;;;;;;;;;;;;-142.21;100.00;66915.31;5056335;28;1450;-85
2021/12/07 06:06:20;;;;;;;;;;;;;;;-142.21;100.00;66915.31;5055651;28;1586;-86
2021/12/07 06:08:45;;;;;;;;;;;;;;;-142.21;100.00;66915.31;5057763;28;841;-85
2021/12/07 06:11:10;;;;;;;;;;;;;;;-142.21;100.00;66915.31;5056293;28;1901;-87
2021/12/07 06:13:35;;;;;;;;;;;;;;;-142.21;100.00;66915.31;5057361;28;1179;-86
2021/12/07 06:16:06;;;;;;;;;;;;;;;-142.21;100.00;66915.31;5056519;28;1462;-87
2021/12/07 06:18:31;;;;;;;;;;;;;;;-142.21;100.00;66915.31;5056278;28;1209;-87
2021/12/07 06:20:56;;;;;;;;;;;;;;;-142.21;100.00;66915.31;5056297;28;1266;-87
2021/12/07 06:23:21;;;;;;;;;;;;;;;-142.21;100.00;66915.31;5057185;28;1047;-85
2021/12/07 06:25:48;;;;;;;;;;;;;;;-142.21;100.00;66915.31;5056050;28;1306;-86
2021/12/07 06:28:13;;;;;;;;;;;;;;;-142.21;100.00;66915.31;5058465;28;797;-87
2021/12/07 06:30:39;;;;;;;;;;;;;;;-142.21;100.00;66915.31;5057618;28;1894;-87
2021/12/07 06:33:04;;;;;;;;;;;;;;;-142.21;100.00;66915.31;5056462;28;1032;-86
2021/12/07 06:35:29;;;;;;;;;;;;;;;-142.21;100.00;66915.31;5058185;28;1197;-88
2021/12/07 06:37:54;;;;;;;;;;;;;;;-142.21;100.00;66915.31;5056266;28;1246;-86
2021/12/07 06:40:19;;;;;;;;;;;;;;;-142.21;100.00;66915.31;5056685;28;1226;-86
2021/12/07 06:42:44;;;;;;;;;;;;;;;-142.21;100.00;66915.31;5056080;28;1044;-86
2021/12/07 06:45:13;;;;;;;;;;;;;;;-142.21;100.00;66915.31;5057153;28;1283;-86
2021/12/07 06:47:38;;;;;;;;;;;;;;;-142.21;100.00;66915.31;5057336;28;912;-84
2021/12/07 06:50:05;;;;;;;;;;;;;;;-142.21;100.00;66915.31;5055416;28;1163;-87
2021/12/07 06:52:30;;;;;;;;;;;;;;;-142.21;100.00;66915.31;5057812;28;1898;-85
2021/12/07 06:54:57;;;;;;;;;;;;;;;-142.21;100.00;66915.31;5056447;28;1315;-86
2021/12/07 06:57:22;;;;;;;;;;;;;;;-142.21;100.00;66915.31;5057905;28;849;-86
2021/12/07 06:59:47;;;;;;;;;;;;;;;-142.21;100.00;66915.31;5056404;28;1289;-87
2021/12/07 07:02:13;;;;;;;;;;;;;;;-142.21;100.00;66915.31;5058422;28;1020;-87
2021/12/07 07:04:38;;;;;;;;;;;;;;;-142.21;100.00;66915.31;5056505;28;1302;-88
2021/12/07 07:07:03;;;;;;;;;;;;;;;-142.21;100.00;66915.31;5056369;28;1004;-87
2021/12/07 07:09:28;;;;;;;;;;;;;;;-142.21;100.00;66915.31;5058411;28;1267;-86
2021/12/07 07:11:53;;;;;;;;;;;;;;;-142.21;100.00;66915.31;5056473;28;1895;-87
2021/12/07 07:14:18;;;;;;;;;;;;;;;-142.21;100.00;66915.31;5057297;28;1204;-85
2021/12/07 07:16:44;;;;;;;;;;;;;;;-142.21;100.00;66915.31;5056547;28;1325;-88
2021/12/07 07:19:09;;;;;;;;;;;;;;;-142.21;100.00;66915.31;5059797;28;1332;-87
2021/12/07 07:21:34;;;;;;;;;;;;;;;-142.21;100.00;66915.31;5062752;28;1079;-87
2021/12/07 07:23:59;;;;;;;;;;;;;;;-142.21;100.00;66915.31;5063315;28;971;-87
2021/12/07 07:26:24;;;;;;;;;;;;;;;-142.21;100.00;66915.31;5060411;28;1262;-88
2021/12/07 07:28:50;;;;;;;;;;;;;;;-142.21;100.00;66915.31;5059917;28;1171;-87
2021/12/07 07:31:15;;;;;;;;;;;;;;;-142.21;100.00;66915.31;5060271;28;1953;-88
2021/12/07 07:33:40;;;;;;;;;;;;;;;-142.21;100.00;66915.31;5059955;28;1719;-88
2021/12/07 07:36:05;;;;;;;;;;;;;;;-142.21;100.00;66915.31;5061230;28;1270;-86
2021/12/07 07:38:30;;;;;;;;;;;;;;;-142.21;100.00;66915.31;5059553;28;1282;-88
2021/12/07 07:40:57;;;;;;;;;;;;;;;-142.21;100.00;66915.31;5059886;28;1172;-86
2021/12/07 07:43:22;;;;;;;;;;;;;;;-142.21;100.00;66915.31;5060276;28;1198;-88
2021/12/07 07:45:49;;;;;;;;;;;;;;;-142.21;100.00;66915.31;5060815;28;1245;-86
2021/12/07 07:48:15;;;;;;;;;;;;;;;-142.21;100.00;66915.31;5061186;28;840;-88
2021/12/07 07:50:40;;;;;;;;;;;;;;;-142.21;100.00;66915.31;5059798;28;1268;-88
2021/12/07 07:53:06;;;;;;;;;;;;;;;-142.21;100.00;66915.31;5059586;28;1906;-88
2021/12/07 07:55:32;;;;;;;;;;;;;;;-142.21;100.00;66915.31;5059818;28;1287;-86
2021/12/07 07:57:57;;;;;;;;;;;;;;;-142.21;100.00;66915.31;5059521;28;1202;-87
2021/12/07 08:00:22;;;;;;;;;;;;;;;-142.21;100.00;66915.31;5059608;28;901;-88
2021/12/07 08:02:48;;;;;;;;;;;;;;;-142.21;100.00;66915.31;5059767;28;1148;-88
2021/12/07 08:05:13;;;;;;;;;;;;;;;-142.21;100.00;66915.31;5059641;28;1318;-88
2021/12/07 08:07:39;;;;;;;;;;;;;;;-142.21;100.00;66915.31;5059484;28;1360;-88
2021/12/07 08:10:06;;;;;;;;;;;;;;;-142.21;100.00;66915.31;5060535;28;926;-88
2021/12/07 08:12:31;;;;;;;;;;;;;;;-142.21;100.00;66915.31;5060901;28;1886;-88
2021/12/07 08:14:57;;;;;;;;;;;;;;;-142.21;100.00;66915.31;5060452;28;1233;-87
2021/12/07 08:17:22;;;;;;;;;;;;;;;-142.21;100.00;66915.31;5059396;28;1043;-88
2021/12/07 08:19:47;;;;;;;;;;;;;;;-142.21;100.00;66915.31;5060717;28;791;-87
2021/12/07 08:22:12;;;;;;;;;;;;;;;-142.21;100.00;66915.31;5059452;28;1308;-87
2021/12/07 08:24:37;;;;;;;;;;;;;;;-142.21;100.00;66915.31;5060251;28;1201;-88
2021/12/07 08:27:03;;;;;;;;;;;;;;;-142.21;100.00;66915.31;5059355;28;1371;-85
2021/12/07 08:29:28;;;;;;;;;;;;;;;-142.21;100.00;66915.31;5057707;28;1432;-89
2021/12/07 08:31:53;;;;;;;;;;;;;;;-142.21;100.00;66915.31;5060287;28;1957;-87
2021/12/07 08:34:18;;;;;;;;;;;;;;;-142.21;100.00;66915.31;5060107;28;1508;-88
2021/12/07 08:36:43;;;;;;;;;;;;;;;-142.21;100.00;66915.31;5058968;28;1475;-88
2021/12/07 08:39:09;;;;;;;;;;;;;;;-142.21;100.00;66915.31;5058733;28;913;-88
2021/12/07 08:41:34;;;;;;;;;;;;;;;-142.21;100.00;66915.31;5060260;28;1007;-88
2021/12/07 08:44:00;;;;;;;;;;;;;;;-142.21;100.00;66915.31;5058460;28;1360;-87
2021/12/07 08:46:25;;;;;;;;;;;;;;;-142.21;100.00;66915.31;5059819;28;1446;-87
2021/12/07 08:48:50;;;;;;;;;;;;;;;-142.21;100.00;66915.31;5057820;28;1463;-88
2021/12/07 08:51:17;;;;;;;;;;;;;;;-142.21;100.00;66915.31;5058374;28;1901;-88
2021/12/07 08:53:56;;;;;;;;;;;;;;;-142.21;100.00;66915.31;5059752;28;1533;-88
2021/12/07 09:01:50;;;;;;;;;;;;;;;-142.21;100.00;66915.31;5059577;28;1446;-88
2021/12/07 09:04:17;;;;;;;;;;;;;;;-142.21;100.00;66915.31;5057906;28;1515;-88
2021/12/07 09:06:43;;;;;;;;;;;;;;;-142.21;100.00;66915.31;5058078;28;1399;-87
2021/12/07 09:09:08;;;;;;;;;;;;;;;-142.21;100.00;66915.31;5057704;28;1502;-87
2021/12/07 09:11:33;;;;;;;;;;;;;;;-142.21;100.00;66915.31;5059470;28;1890;-87
2021/12/07 09:13:59;;;;;;;;;;;;;;;-142.21;100.00;66915.31;5058486;28;1384;-88
2021/12/07 09:16:24;;;;;;;;;;;;;;;-142.21;100.00;66915.31;5056520;28;1567;-87
2021/12/07 09:18:49;;;;;;;;;;;;;;;-142.21;100.00;66915.31;5057112;28;1522;-88
2021/12/07 09:21:15;;;;;;;;;;;;;;;-142.21;100.00;66915.31;5057345;28;1273;-87
2021/12/07 09:23:41;;;;;;;;;;;;;;;-142.21;100.00;66915.31;5058828;28;880;-87
2021/12/07 09:26:07;;;;;;;;;;;;;;;-142.21;100.00;66915.31;5057392;28;1210;-88
2021/12/07 09:28:32;;;;;;;;;;;;;;;-142.21;100.00;66915.31;5056957;28;1365;-86
2021/12/07 09:30:57;;;;;;;;;;;;;;;-142.21;100.00;66915.31;5057809;28;1902;-88
2021/12/07 09:33:27;;;;;;;;;;;;;;;-142.21;100.00;66915.31;5057112;28;1620;-87
2021/12/07 09:35:53;;;;;;;;;;;;;;;-142.21;100.00;66915.31;5056791;28;1277;-88
2021/12/07 09:38:18;;;;;;;;;;;;;;;-142.21;100.00;66915.31;5046918;28;1516;-86
2021/12/07 09:40:44;;;;;;;;;;;;;;;-142.21;100.00;66915.31;5038212;28;984;-88
2021/12/07 09:43:12;;;;;;;;;;;;;;;-142.21;100.00;66915.31;5058371;28;1337;-87
2021/12/07 09:45:37;;;;;;;;;;;;;;;-142.21;100.00;66915.31;5086419;28;1498;-88
2021/12/07 09:48:04;;;;;;;;;;;;;;;-142.21;100.00;66915.31;5057007;28;1565;-87
2021/12/07 09:50:29;;;;;;;;;;;;;;;-142.21;100.00;66915.31;5057204;28;1502;-88
2021/12/07 09:52:55;;;;;;;;;;;;;;;-142.21;100.00;66915.31;5058111;28;1894;-86
2021/12/07 09:55:20;;;;;;;;;;;;;;;-142.21;100.00;66915.31;5056870;28;1458;-86
2021/12/07 09:57:46;;;;;;;;;;;;;;;-142.21;100.00;66915.31;5058464;28;1434;-87
2021/12/07 10:00:13;;;;;;;;;;;;;;;-142.21;100.00;66915.31;5056592;28;1443;-88
2021/12/07 10:02:38;;;;;;;;;;;;;;;-142.21;100.00;66915.31;5058338;28;1422;-87
2021/12/07 10:05:04;;;;;;;;;;;;;;;-142.21;100.00;66915.31;5056973;28;1529;-88
2021/12/07 10:07:30;;;;;;;;;;;;;;;-142.21;100.00;66915.31;5056939;28;1359;-88
2021/12/07 10:09:55;;;;;;;;;;;;;;;-142.21;100.00;66915.31;5056601;28;1332;-87
2021/12/07 10:12:21;;;;;;;;;;;;;;;-142.21;100.00;66915.31;5056860;28;1881;-88
2021/12/07 10:14:47;;;;;;;;;;;;;;;-142.21;100.00;66915.31;5056670;28;1289;-88
2021/12/07 10:17:12;;;;;;;;;;;;;;;-142.21;100.00;66915.31;5056213;28;1329;-88
2021/12/07 10:19:42;;;;;;;;;;;;;;;-142.21;100.00;66915.31;5057168;28;1194;-87
2021/12/07 10:22:09;;;;;;;;;;;;;;;-142.21;100.00;66915.31;5057288;28;1224;-88
2021/12/07 10:24:47;;;;;;;;;;;;;;;-142.21;100.00;66915.31;5056662;28;1274;-88
2021/12/07 10:27:13;;;;;;;;;;;;;;;-142.21;100.00;66915.31;5056586;28;1294;-88
2021/12/07 10:29:39;;;;;;;;;;;;;;;-142.21;100.00;66915.31;5056477;28;1182;-87
2021/12/07 10:32:07;;;;;;;;;;;;;;;-142.21;100.00;66915.31;5056640;28;1947;-88
2021/12/07 10:34:35;;;;;;;;;;;;;;;-142.21;100.00;66915.31;5056487;28;1369;-87
2021/12/07 10:37:15;;;;;;;;;;;;;;;-142.21;100.00;66915.31;5056814;28;1191;-88
2021/12/07 10:39:41;;;;;;;;;;;;;;;-142.21;100.00;66915.31;5057673;28;870;-88
2021/12/07 10:42:09;;;;;;;;;;;;;;;-142.21;100.00;66915.31;5056569;28;1186;-87
2021/12/07 10:44:36;;;;;;;;;;;;;;;-142.21;100.00;66915.31;5056654;28;1313;-88
2021/12/07 10:47:12;;;;;;;;;;;;;;;-142.21;100.00;66915.31;5056351;28;1285;-88
2021/12/07 10:49:43;;;;;;;;;;;;;;;-142.21;100.00;66915.31;5056116;28;1265;-88
2021/12/07 10:52:17;;;;;;;;;;;;;;;-142.21;100.00;66915.31;5057697;28;1951;-86
2021/12/07 10:54:45;;;;;;;;;;;;;;;-142.21;100.00;66915.31;5056226;28;1365;-86
2021/12/07 10:57:15;;;;;;;;;;;;;;;-142.21;100.00;66915.31;5058214;28;1032;-87
2021/12/07 10:59:48;;;;;;;;;;;;;;;-142.21;100.00;66915.31;5058072;28;876;-87
2021/12/07 11:02:15;;;;;;;;;;;;;;;-142.21;100.00;66915.31;5056373;28;1335;-88
2021/12/07 11:04:41;;;;;;;;;;;;;;;-142.21;100.00;66915.31;5056268;28;1208;-87
2021/12/07 11:07:18;;;;;;;;;;;;;;;-142.21;100.00;66915.31;5056702;28;1444;-86
2021/12/07 11:09:43;;;;;;;;;;;;;;;-142.21;100.00;66915.31;5058100;28;884;-87
2021/12/07 11:12:09;;;;;;;;;;;;;;;-142.21;100.00;66915.31;5057394;28;1897;-88
2021/12/07 11:14:38;;;;;;;;;;;;;;;-142.21;100.00;66915.31;5056715;28;1270;-86
2021/12/07 11:17:03;;;;;;;;;;;;;;;-142.21;100.00;66915.31;5058069;28;833;-88
2021/12/07 11:19:29;;;;;;;;;;;;;;;-142.21;100.00;66915.31;5056633;28;1282;-86
2021/12/07 11:21:55;;;;;;;;;;;;;;;-142.21;100.00;66915.31;5057869;28;1003;-87
2021/12/07 11:24:20;;;;;;;;;;;;;;;-142.21;100.00;66915.31;5056170;28;1353;-88
2021/12/07 11:29:42;;;;;;;;;;;;;;;-142.21;100.00;66915.31;5057895;28;1378;-87
2021/12/07 11:32:09;;;;;;;;;;;;;;;-142.21;100.00;66915.31;5055852;28;1953;-87
2021/12/07 11:34:39;;;;;;;;;;;;;;;-142.21;100.00;66915.31;5055871;28;1216;-88
2021/12/07 11:37:07;;;;;;;;;;;;;;;-142.21;100.00;66915.31;5057454;28;884;-88
2021/12/07 11:39:46;;;;;;;;;;;;;;;-142.21;100.00;66915.31;5057855;28;1039;-87
2021/12/07 11:42:33;;;;;;;;;;;;;;;-142.21;100.00;66915.31;5056214;28;1392;-87
2021/12/07 11:47:30;;;;;;;;;;;;;;;-142.21;100.00;66915.31;5031644;28;1341;-89
2021/12/07 11:49:56;;;;;;;;;;;;;;;-142.21;100.00;66915.31;4997053;28;1206;-89
2021/12/07 11:52:22;;;;;;;;;;;;;;;-142.21;100.00;66915.31;5013490;28;1981;-90
2021/12/07 11:54:47;;;;;;;;;;;;;;;-142.21;100.00;66915.31;4995766;28;1229;-89
2021/12/07 11:57:14;;;;;;;;;;;;;;;-142.21;100.00;66915.31;4995820;28;1465;-89
2021/12/07 11:59:40;;;;;;;;;;;;;;;-142.21;100.00;66915.31;5013345;28;833;-89
2021/12/07 12:02:05;;;;;;;;;;;;;;;-142.21;100.00;66915.31;5013033;28;1284;-89
2021/12/07 12:04:31;;;;;;;;;;;;;;;-142.21;100.00;66915.31;5014480;28;1031;-90
2021/12/07 12:06:57;;;;;;;;;;;;;;;-142.21;100.00;66915.31;5016809;28;1253;-89
2021/12/07 12:09:23;;;;;;;;;;;;;;;-142.21;100.00;66915.31;4998978;28;1385;-90
2021/12/07 12:12:07;;;;;;;;;;;;;;;-142.21;100.00;66915.31;4999214;28;1918;-89
2021/12/07 12:14:43;;;;;;;;;;;;;;;-142.21;100.00;66915.31;5016821;28;968;-89
2021/12/07 12:17:13;;;;;;;;;;;;;;;-142.21;100.00;66915.31;4999153;28;1239;-89
2021/12/07 12:19:57;;;;;;;;;;;;;;;-142.21;100.00;66915.31;4998837;28;1417;-89
2021/12/07 12:22:22;;;;;;;;;;;;;;;-142.21;100.00;66915.31;4999519;28;1172;-89
2021/12/07 12:24:49;;;;;;;;;;;;;;;-142.21;100.00;66915.31;5016378;28;1198;-90
2021/12/07 12:27:14;;;;;;;;;;;;;;;-142.21;100.00;66915.31;4998815;28;1209;-89
2021/12/07 12:29:40;;;;;;;;;;;;;;;-142.21;100.00;66915.31;4998633;28;1000;-90
2021/12/07 12:32:06;;;;;;;;;;;;;;;-142.21;100.00;66915.31;4998522;28;1970;-89
2021/12/07 12:34:33;;;;;;;;;;;;;;;-142.21;100.00;66915.31;4998641;28;1339;-89
2021/12/07 12:37:16;;;;;;;;;;;;;;;-142.21;100.00;66915.31;5016491;28;1263;-90
2021/12/07 12:39:44;;;;;;;;;;;;;;;-142.21;100.00;66915.31;4998889;28;1170;-89
2021/12/07 12:42:10;;;;;;;;;;;;;;;-142.21;100.00;66915.31;5015961;28;652;-90
2021/12/07 12:44:36;;;;;;;;;;;;;;;-142.21;100.00;66915.31;5015984;28;861;-90
2021/12/07 12:47:01;;;;;;;;;;;;;;;-142.21;100.00;66915.31;4998218;28;1197;-88
2021/12/07 12:49:37;;;;;;;;;;;;;;;-142.21;100.00;66915.31;4998172;28;1300;-89
2021/12/07 12:52:03;;;;;;;;;;;;;;;-142.21;100.00;66915.31;5015959;28;1894;-89
2021/12/07 12:54:36;;;;;;;;;;;;;;;-142.21;100.00;66915.31;4998271;28;1224;-89
2021/12/07 12:57:09;;;;;;;;;;;;;;;-142.21;100.00;66915.31;4998774;28;1382;-89
2021/12/07 12:59:39;;;;;;;;;;;;;;;-142.21;100.00;66915.31;4998262;28;1337;-89
2021/12/07 13:02:04;;;;;;;;;;;;;;;-142.21;100.00;66915.31;4998569;28;1311;-89
2021/12/07 13:04:31;;;;;;;;;;;;;;;-142.21;100.00;66915.31;4998509;28;1180;-90
2021/12/07 13:07:40;;;;;;;;;;;;;;;-142.21;100.00;66915.31;4998153;28;1216;-90
2021/12/07 13:09:46;;;;;;;;;;;;;;;-142.21;100.00;66915.31;5012752;28;1298;-89
2021/12/07 13:12:19;;;;;;;;;;;;;;;-142.21;100.00;66915.31;4998017;28;1871;-88
2021/12/07 13:14:50;;;;;;;;;;;;;;;-142.21;100.00;66915.31;4997718;28;1344;-90
2021/12/07 13:17:21;;;;;;;;;;;;;;;-142.21;100.00;66915.31;4997854;28;1228;-90
2021/12/07 13:20:05;;;;;;;;;;;;;;;-142.21;100.00;66915.31;4997728;28;1228;-89
2021/12/07 13:22:34;;;;;;;;;;;;;;;-142.21;100.00;66915.31;5015442;28;965;-89
2021/12/07 13:25:04;;;;;;;;;;;;;;;-142.21;100.00;66915.31;5015453;28;1193;-89
2021/12/07 13:27:29;;;;;;;;;;;;;;;-142.21;100.00;66915.31;5015260;28;783;-89
2021/12/07 13:29:54;;;;;;;;;;;;;;;-142.21;100.00;66915.31;4997356;28;1169;-89
2021/12/07 13:32:19;;;;;;;;;;;;;;;-142.21;100.00;66915.31;4997323;28;1902;-89
2021/12/07 13:34:45;;;;;;;;;;;;;;;-142.21;100.00;66915.31;5017114;28;1677;-89
2021/12/07 13:37:11;;;;;;;;;;;;;;;-142.21;100.00;66915.31;5035033;28;935;-90
2021/12/07 13:39:39;;;;;;;;;;;;;;;-142.21;100.00;66915.31;5034816;28;1042;-90
2021/12/07 13:42:16;;;;;;;;;;;;;;;-142.21;100.00;66915.31;5017053;28;1243;-90
2021/12/07 13:44:46;;;;;;;;;;;;;;;-142.21;100.00;66915.31;5017062;28;1208;-91
2021/12/07 13:47:19;;;;;;;;;;;;;;;-142.21;100.00;66915.31;5034495;28;1027;-91
2021/12/07 13:49:46;;;;;;;;;;;;;;;-142.21;100.00;66915.31;5016708;28;1315;-90
2021/12/07 13:52:14;;;;;;;;;;;;;;;-142.21;100.00;66915.31;5016972;28;1957;-89
2021/12/07 13:54:41;;;;;;;;;;;;;;;-142.21;100.00;66915.31;5016714;28;1303;-89
2021/12/07 13:57:06;;;;;;;;;;;;;;;-142.21;100.00;66915.31;5034509;28;1223;-89
2021/12/07 13:59:31;;;;;;;;;;;;;;;-142.21;100.00;66915.31;5016422;28;1225;-89
2021/12/07 14:01:57;;;;;;;;;;;;;;;-142.21;100.00;66915.31;5016800;28;1420;-90